sensor_id;sensor_type;location;lat;lon;timestamp;pressure;altitude;pressure_sealevel;temperature;humidity
43745;BME280;29359;53.048;8.732;2022-09-09T00:00:54;100892.25;;;14.60;76.89
43745;BME280;29359;53.048;8.732;2022-09-09T00:03:00;100891.47;;;14.58;76.69
43745;BME280;29359;53.048;8.732;2022-09-09T00:05:14;100894.25;;;14.55;77.14
43745;BME280;29359;53.048;8.732;2022-09-09T00:07:38;100892.66;;;14.51;77.32
43745;BME280;29359;53.048;8.732;2022-09-09T00:14:03;100878.59;;;14.49;74.39
43745;BME280;29359;53.048;8.732;2022-09-09T00:21:15;100881.94;;;14.32;74.81
43745;BME280;29359;53.048;8.732;2022-09-09T00:23:29;100878.44;;;14.30;75.54
43745;BME280;29359;53.048;8.732;2022-09-09T00:25:42;100879.38;;;14.29;76.80
43745;BME280;29359;53.048;8.732;2022-09-09T00:27:52;100876.78;;;14.27;76.73
43745;BME280;29359;53.048;8.732;2022-09-09T00:29:58;100882.88;;;14.31;75.60
43745;BME280;29359;53.048;8.732;2022-09-09T00:32:12;100880.31;;;14.28;76.82
43745;BME280;29359;53.048;8.732;2022-09-09T00:34:23;100883.97;;;14.25;77.82
43745;BME280;29359;53.048;8.732;2022-09-09T00:36:26;100881.44;;;14.22;78.52
43745;BME280;29359;53.048;8.732;2022-09-09T00:38:43;100884.22;;;14.19;76.85
43745;BME280;29359;53.048;8.732;2022-09-09T00:40:52;100884.28;;;14.18;76.35
43745;BME280;29359;53.048;8.732;2022-09-09T00:50:00;100891.72;;;14.09;73.56
43745;BME280;29359;53.048;8.732;2022-09-09T00:52:27;100880.25;;;14.09;73.98
43745;BME280;29359;53.048;8.732;2022-09-09T00:54:44;100884.75;;;14.07;77.14
43745;BME280;29359;53.048;8.732;2022-09-09T00:57:05;100879.50;;;14.05;75.97
43745;BME280;29359;53.048;8.732;2022-09-09T00:59:39;100876.06;;;14.03;75.34
43745;BME280;29359;53.048;8.732;2022-09-09T01:01:45;100885.81;;;14.03;77.19
43745;BME280;29359;53.048;8.732;2022-09-09T01:03:54;100876.91;;;14.04;75.16
43745;BME280;29359;53.048;8.732;2022-09-09T01:08:18;100887.59;;;14.02;79.18
43745;BME280;29359;53.048;8.732;2022-09-09T01:10:39;100886.78;;;14.00;82.85
43745;BME280;29359;53.048;8.732;2022-09-09T01:12:43;100890.38;;;13.99;83.43
43745;BME280;29359;53.048;8.732;2022-09-09T01:14:50;100886.00;;;13.98;83.16
43745;BME280;29359;53.048;8.732;2022-09-09T01:16:57;100888.66;;;13.98;81.25
43745;BME280;29359;53.048;8.732;2022-09-09T01:19:02;100883.41;;;13.97;80.14
43745;BME280;29359;53.048;8.732;2022-09-09T01:28:27;100886.25;;;13.92;77.20
43745;BME280;29359;53.048;8.732;2022-09-09T01:30:30;100875.75;;;13.89;79.56
43745;BME280;29359;53.048;8.732;2022-09-09T01:34:41;100880.25;;;13.87;79.81
43745;BME280;29359;53.048;8.732;2022-09-09T01:37:15;100874.06;;;13.87;78.87
43745;BME280;29359;53.048;8.732;2022-09-09T01:39:17;100866.97;;;13.87;78.97
43745;BME280;29359;53.048;8.732;2022-09-09T01:41:19;100866.94;;;13.89;79.21
43745;BME280;29359;53.048;8.732;2022-09-09T01:43:22;100865.16;;;13.89;78.86
43745;BME280;29359;53.048;8.732;2022-09-09T01:45:25;100863.41;;;13.88;78.66
43745;BME280;29359;53.048;8.732;2022-09-09T01:47:26;100869.63;;;13.87;82.12
43745;BME280;29359;53.048;8.732;2022-09-09T01:49:28;100861.78;;;13.84;82.26
43745;BME280;29359;53.048;8.732;2022-09-09T01:51:30;100866.22;;;13.83;84.26
43745;BME280;29359;53.048;8.732;2022-09-09T01:53:31;100855.75;;;13.80;84.12
43745;BME280;29359;53.048;8.732;2022-09-09T01:55:40;100861.06;;;13.80;82.98
43745;BME280;29359;53.048;8.732;2022-09-09T02:00:19;100860.44;;;13.74;84.87
43745;BME280;29359;53.048;8.732;2022-09-09T02:03:08;100850.94;;;13.68;80.96
43745;BME280;29359;53.048;8.732;2022-09-09T02:05:37;100845.56;;;13.70;75.54
43745;BME280;29359;53.048;8.732;2022-09-09T02:08:08;100846.44;;;13.70;76.06
43745;BME280;29359;53.048;8.732;2022-09-09T02:12:19;100856.31;;;13.67;85.90
43745;BME280;29359;53.048;8.732;2022-09-09T02:14:26;100859.09;;;13.64;88.18
43745;BME280;29359;53.048;8.732;2022-09-09T02:16:40;100840.78;;;13.58;86.30
43745;BME280;29359;53.048;8.732;2022-09-09T02:21:05;100854.84;;;13.60;85.67
43745;BME280;29359;53.048;8.732;2022-09-09T02:23:08;100858.41;;;13.59;84.37
43745;BME280;29359;53.048;8.732;2022-09-09T02:25:14;100852.19;;;13.60;84.45
43745;BME280;29359;53.048;8.732;2022-09-09T02:27:18;100854.97;;;13.57;85.40
43745;BME280;29359;53.048;8.732;2022-09-09T02:29:26;100853.25;;;13.56;87.42
43745;BME280;29359;53.048;8.732;2022-09-09T02:31:30;100860.47;;;13.52;85.32
43745;BME280;29359;53.048;8.732;2022-09-09T02:33:38;100859.47;;;13.55;85.28
43745;BME280;29359;53.048;8.732;2022-09-09T02:35:42;100858.66;;;13.52;86.01
43745;BME280;29359;53.048;8.732;2022-09-09T02:37:45;100853.50;;;13.49;83.76
43745;BME280;29359;53.048;8.732;2022-09-09T02:39:49;100858.78;;;13.49;81.78
43745;BME280;29359;53.048;8.732;2022-09-09T02:41:51;100849.91;;;13.50;79.21
43745;BME280;29359;53.048;8.732;2022-09-09T02:43:53;100844.59;;;13.50;77.14
43745;BME280;29359;53.048;8.732;2022-09-09T02:48:45;100845.66;;;13.46;75.18
43745;BME280;29359;53.048;8.732;2022-09-09T02:53:01;100851.06;;;13.43;74.92
43745;BME280;29359;53.048;8.732;2022-09-09T02:55:36;100849.44;;;13.39;75.04
43745;BME280;29359;53.048;8.732;2022-09-09T02:57:33;100842.53;;;13.35;74.72
43745;BME280;29359;53.048;8.732;2022-09-09T02:59:36;100845.19;;;13.35;73.87
43745;BME280;29359;53.048;8.732;2022-09-09T03:01:37;100847.91;;;13.34;73.76
43745;BME280;29359;53.048;8.732;2022-09-09T03:03:41;100849.69;;;13.33;73.20
43745;BME280;29359;53.048;8.732;2022-09-09T03:05:44;100847.97;;;13.32;76.87
43745;BME280;29359;53.048;8.732;2022-09-09T03:07:46;100857.75;;;13.30;77.17
43745;BME280;29359;53.048;8.732;2022-09-09T03:09:47;100852.47;;;13.30;75.28
43745;BME280;29359;53.048;8.732;2022-09-09T03:11:50;100850.69;;;13.31;74.46
43745;BME280;29359;53.048;8.732;2022-09-09T03:13:51;100855.13;;;13.30;73.83
43745;BME280;29359;53.048;8.732;2022-09-09T03:15:53;100856.91;;;13.30;74.85
43745;BME280;29359;53.048;8.732;2022-09-09T03:17:54;100856.91;;;13.30;74.45
43745;BME280;29359;53.048;8.732;2022-09-09T03:19:56;100865.72;;;13.30;75.34
43745;BME280;29359;53.048;8.732;2022-09-09T03:21:59;100870.22;;;13.28;78.62
43745;BME280;29359;53.048;8.732;2022-09-09T03:24:01;100870.22;;;13.28;78.89
43745;BME280;29359;53.048;8.732;2022-09-09T03:26:04;100865.84;;;13.27;77.97
43745;BME280;29359;53.048;8.732;2022-09-09T03:28:06;100877.25;;;13.29;77.57
43745;BME280;29359;53.048;8.732;2022-09-09T03:30:07;100874.53;;;13.31;77.71
43745;BME280;29359;53.048;8.732;2022-09-09T03:32:09;100870.97;;;13.32;78.16
43745;BME280;29359;53.048;8.732;2022-09-09T03:34:11;100869.13;;;13.34;77.67
43745;BME280;29359;53.048;8.732;2022-09-09T03:36:15;100874.34;;;13.35;77.67
43745;BME280;29359;53.048;8.732;2022-09-09T03:38:16;100868.94;;;13.38;79.02
43745;BME280;29359;53.048;8.732;2022-09-09T03:40:18;100869.78;;;13.39;79.70
43745;BME280;29359;53.048;8.732;2022-09-09T03:42:21;100868.88;;;13.40;80.45
43745;BME280;29359;53.048;8.732;2022-09-09T03:44:22;100867.88;;;13.42;81.18
43745;BME280;29359;53.048;8.732;2022-09-09T03:46:25;100871.38;;;13.44;81.71
43745;BME280;29359;53.048;8.732;2022-09-09T03:48:27;100869.59;;;13.45;82.07
43745;BME280;29359;53.048;8.732;2022-09-09T03:50:29;100875.69;;;13.47;82.75
43745;BME280;29359;53.048;8.732;2022-09-09T03:52:31;100875.63;;;13.48;84.55
43745;BME280;29359;53.048;8.732;2022-09-09T03:54:32;100877.41;;;13.48;86.15
43745;BME280;29359;53.048;8.732;2022-09-09T03:56:34;100878.28;;;13.48;86.70
43745;BME280;29359;53.048;8.732;2022-09-09T03:58:37;100876.50;;;13.49;87.60
43745;BME280;29359;53.048;8.732;2022-09-09T04:00:39;100873.78;;;13.50;87.68
43745;BME280;29359;53.048;8.732;2022-09-09T04:02:43;100875.50;;;13.51;87.70
43745;BME280;29359;53.048;8.732;2022-09-09T04:04:44;100866.56;;;13.54;88.84
43745;BME280;29359;53.048;8.732;2022-09-09T04:06:46;100867.44;;;13.55;89.77
43745;BME280;29359;53.048;8.732;2022-09-09T04:08:49;100864.72;;;13.56;90.76
43745;BME280;29359;53.048;8.732;2022-09-09T04:10:52;100869.91;;;13.59;91.42
43745;BME280;29359;53.048;8.732;2022-09-09T04:12:53;100872.47;;;13.61;92.30
43745;BME280;29359;53.048;8.732;2022-09-09T04:14:55;100871.56;;;13.62;92.62
43745;BME280;29359;53.048;8.732;2022-09-09T04:16:56;100867.97;;;13.63;93.19
43745;BME280;29359;53.048;8.732;2022-09-09T04:18:59;100867.91;;;13.64;94.23
43745;BME280;29359;53.048;8.732;2022-09-09T04:21:01;100877.59;;;13.65;94.30
43745;BME280;29359;53.048;8.732;2022-09-09T04:23:03;100880.13;;;13.68;94.61
43745;BME280;29359;53.048;8.732;2022-09-09T04:25:06;100874.81;;;13.68;95.05
43745;BME280;29359;53.048;8.732;2022-09-09T04:27:07;100876.56;;;13.69;95.08
43745;BME280;29359;53.048;8.732;2022-09-09T04:29:09;100890.69;;;13.70;95.93
43745;BME280;29359;53.048;8.732;2022-09-09T04:31:16;100884.44;;;13.71;95.71
43745;BME280;29359;53.048;8.732;2022-09-09T04:33:19;100885.31;;;13.71;95.97
43745;BME280;29359;53.048;8.732;2022-09-09T04:35:21;100887.91;;;13.73;96.22
43745;BME280;29359;53.048;8.732;2022-09-09T04:37:22;100884.38;;;13.72;96.67
43745;BME280;29359;53.048;8.732;2022-09-09T04:39:24;100882.53;;;13.74;96.73
43745;BME280;29359;53.048;8.732;2022-09-09T04:41:25;100891.28;;;13.76;96.73
43745;BME280;29359;53.048;8.732;2022-09-09T04:43:27;100890.31;;;13.79;96.59
43745;BME280;29359;53.048;8.732;2022-09-09T04:45:28;100893.81;;;13.79;96.91
43745;BME280;29359;53.048;8.732;2022-09-09T04:47:30;100893.88;;;13.78;96.79
43745;BME280;29359;53.048;8.732;2022-09-09T04:49:31;100904.56;;;13.76;97.16
43745;BME280;29359;53.048;8.732;2022-09-09T04:51:33;100910.72;;;13.77;97.16
43745;BME280;29359;53.048;8.732;2022-09-09T04:53:34;100910.72;;;13.77;97.42
43745;BME280;29359;53.048;8.732;2022-09-09T04:55:36;100905.44;;;13.77;97.55
43745;BME280;29359;53.048;8.732;2022-09-09T04:57:39;100903.63;;;13.77;97.23
43745;BME280;29359;53.048;8.732;2022-09-09T04:59:41;100909.81;;;13.78;97.39
43745;BME280;29359;53.048;8.732;2022-09-09T05:01:42;100905.44;;;13.77;97.24
43745;BME280;29359;53.048;8.732;2022-09-09T05:03:44;100909.81;;;13.78;97.70
43745;BME280;29359;53.048;8.732;2022-09-09T05:05:48;100910.72;;;13.77;97.55
43745;BME280;29359;53.048;8.732;2022-09-09T05:07:50;100910.72;;;13.77;97.78
43745;BME280;29359;53.048;8.732;2022-09-09T05:09:51;100916.97;;;13.76;97.49
43745;BME280;29359;53.048;8.732;2022-09-09T05:11:53;100916.03;;;13.77;97.73
43745;BME280;29359;53.048;8.732;2022-09-09T05:13:55;100921.28;;;13.78;97.61
43745;BME280;29359;53.048;8.732;2022-09-09T05:15:57;100921.28;;;13.78;98.04
43745;BME280;29359;53.048;8.732;2022-09-09T05:18:00;100921.34;;;13.77;97.78
43745;BME280;29359;53.048;8.732;2022-09-09T05:20:02;100920.41;;;13.78;97.90
43745;BME280;29359;53.048;8.732;2022-09-09T05:22:10;100925.66;;;13.79;97.91
43745;BME280;29359;53.048;8.732;2022-09-09T05:24:13;100929.19;;;13.80;98.16
43745;BME280;29359;53.048;8.732;2022-09-09T05:26:19;100922.09;;;13.80;97.65
43745;BME280;29359;53.048;8.732;2022-09-09T05:28:21;100930.00;;;13.82;97.57
43745;BME280;29359;53.048;8.732;2022-09-09T05:30:22;100921.09;;;13.83;97.38
43745;BME280;29359;53.048;8.732;2022-09-09T05:32:29;100930.72;;;13.86;97.50
43745;BME280;29359;53.048;8.732;2022-09-09T05:34:33;100931.66;;;13.84;97.48
43745;BME280;29359;53.048;8.732;2022-09-09T05:36:34;100933.31;;;13.87;97.44
43745;BME280;29359;53.048;8.732;2022-09-09T05:38:36;100935.94;;;13.89;97.29
43745;BME280;29359;53.048;8.732;2022-09-09T05:40:39;100932.44;;;13.88;96.79
43745;BME280;29359;53.048;8.732;2022-09-09T05:42:41;100944.72;;;13.91;96.98
43745;BME280;29359;53.048;8.732;2022-09-09T05:44:42;100941.13;;;13.92;96.92
43745;BME280;29359;53.048;8.732;2022-09-09T05:46:44;100934.03;;;13.92;97.03
43745;BME280;29359;53.048;8.732;2022-09-09T05:48:47;100942.00;;;13.92;97.53
43745;BME280;29359;53.048;8.732;2022-09-09T05:50:55;100940.19;;;13.93;97.42
43745;BME280;29359;53.048;8.732;2022-09-09T05:52:56;100940.13;;;13.94;97.62
43745;BME280;29359;53.048;8.732;2022-09-09T05:54:58;100940.13;;;13.94;97.80
43745;BME280;29359;53.048;8.732;2022-09-09T05:57:00;100935.56;;;13.98;97.60
43745;BME280;29359;53.048;8.732;2022-09-09T05:59:02;100936.97;;;14.06;97.95
43745;BME280;29359;53.048;8.732;2022-09-09T06:01:08;100934.88;;;14.14;97.42
43745;BME280;29359;53.048;8.732;2022-09-09T06:03:11;100939.84;;;14.22;97.52
43745;BME280;29359;53.048;8.732;2022-09-09T06:05:13;100939.59;;;14.28;98.02
43745;BME280;29359;53.048;8.732;2022-09-09T06:07:16;100938.50;;;14.34;97.80
43745;BME280;29359;53.048;8.732;2022-09-09T06:09:17;100941.69;;;14.42;97.84
43745;BME280;29359;53.048;8.732;2022-09-09T06:11:25;100940.53;;;14.49;97.74
43745;BME280;29359;53.048;8.732;2022-09-09T06:13:27;100933.22;;;14.54;97.90
43745;BME280;29359;53.048;8.732;2022-09-09T06:15:29;100932.97;;;14.60;97.17
43745;BME280;29359;53.048;8.732;2022-09-09T06:17:31;100934.44;;;14.67;97.19
43745;BME280;29359;53.048;8.732;2022-09-09T06:19:33;100937.75;;;14.72;97.07
43745;BME280;29359;53.048;8.732;2022-09-09T06:21:36;100934.06;;;14.76;96.97
43745;BME280;29359;53.048;8.732;2022-09-09T06:23:42;100939.31;;;14.78;96.64
43745;BME280;29359;53.048;8.732;2022-09-09T06:25:43;100934.06;;;14.76;96.26
43745;BME280;29359;53.048;8.732;2022-09-09T06:27:48;100934.13;;;14.75;96.15
43745;BME280;29359;53.048;8.732;2022-09-09T06:29:50;100935.94;;;14.73;96.23
43745;BME280;29359;53.048;8.732;2022-09-09T06:31:52;100934.28;;;14.70;95.86
43745;BME280;29359;53.048;8.732;2022-09-09T06:33:53;100941.47;;;14.68;95.74
43745;BME280;29359;53.048;8.732;2022-09-09T06:35:56;100938.81;;;14.68;95.65
43745;BME280;29359;53.048;8.732;2022-09-09T06:37:58;100940.69;;;14.66;95.40
43745;BME280;29359;53.048;8.732;2022-09-09T06:39:59;100944.25;;;14.65;95.56
43745;BME280;29359;53.048;8.732;2022-09-09T06:42:01;100944.25;;;14.65;95.71
43745;BME280;29359;53.048;8.732;2022-09-09T06:44:02;100938.16;;;14.63;95.52
43745;BME280;29359;53.048;8.732;2022-09-09T06:46:06;100929.25;;;14.64;95.58
43745;BME280;29359;53.048;8.732;2022-09-09T06:48:09;100935.28;;;14.68;95.44
43745;BME280;29359;53.048;8.732;2022-09-09T06:50:10;100942.41;;;14.67;95.36
43745;BME280;29359;53.048;8.732;2022-09-09T06:52:12;100931.84;;;14.66;95.75
43745;BME280;29359;53.048;8.732;2022-09-09T06:54:14;100935.34;;;14.66;95.71
43745;BME280;29359;53.048;8.732;2022-09-09T06:58:29;100932.56;;;14.69;95.82
43745;BME280;29359;53.048;8.732;2022-09-09T07:00:31;100931.63;;;14.70;95.53
43745;BME280;29359;53.048;8.732;2022-09-09T07:02:32;100937.75;;;14.72;95.89
43745;BME280;29359;53.048;8.732;2022-09-09T07:04:40;100935.16;;;14.71;95.46
43745;BME280;29359;53.048;8.732;2022-09-09T07:06:43;100933.28;;;14.73;95.57
43745;BME280;29359;53.048;8.732;2022-09-09T07:08:49;100941.16;;;14.76;95.40
43745;BME280;29359;53.048;8.732;2022-09-09T07:11:07;100931.25;;;14.80;95.53
43745;BME280;29359;53.048;8.732;2022-09-09T07:13:13;100931.00;;;14.86;95.16
43745;BME280;29359;53.048;8.732;2022-09-09T07:15:16;100924.53;;;14.91;95.37
43745;BME280;29359;53.048;8.732;2022-09-09T07:17:19;100930.56;;;14.95;94.83
43745;BME280;29359;53.048;8.732;2022-09-09T07:19:21;100936.63;;;14.98;94.56
43745;BME280;29359;53.048;8.732;2022-09-09T07:21:23;100939.84;;;15.05;94.98
43745;BME280;29359;53.048;8.732;2022-09-09T07:23:25;100940.22;;;15.16;95.07
43745;BME280;29359;53.048;8.732;2022-09-09T07:25:27;100943.44;;;15.24;95.05
43745;BME280;29359;53.048;8.732;2022-09-09T07:27:30;100945.81;;;15.30;95.19
43745;BME280;29359;53.048;8.732;2022-09-09T07:29:32;100948.19;;;15.36;94.88
43745;BME280;29359;53.048;8.732;2022-09-09T07:31:36;100950.56;;;15.43;94.68
43745;BME280;29359;53.048;8.732;2022-09-09T07:33:38;100951.94;;;15.51;94.36
43745;BME280;29359;53.048;8.732;2022-09-09T07:35:39;100955.00;;;15.62;94.30
43745;BME280;29359;53.048;8.732;2022-09-09T07:37:42;100953.69;;;15.71;94.20
43745;BME280;29359;53.048;8.732;2022-09-09T07:39:47;100948.94;;;15.78;94.04
43745;BME280;29359;53.048;8.732;2022-09-09T07:41:49;100949.50;;;15.84;93.97
43745;BME280;29359;53.048;8.732;2022-09-09T07:43:52;100950.22;;;15.88;93.13
43745;BME280;29359;53.048;8.732;2022-09-09T07:45:58;100949.94;;;15.94;93.10
43745;BME280;29359;53.048;8.732;2022-09-09T07:48:00;100951.44;;;15.99;93.00
43745;BME280;29359;53.048;8.732;2022-09-09T07:50:02;100951.19;;;16.04;92.25
43745;BME280;29359;53.048;8.732;2022-09-09T07:52:03;100950.06;;;16.10;92.09
43745;BME280;29359;53.048;8.732;2022-09-09T07:54:08;100945.22;;;16.18;92.10
43745;BME280;29359;53.048;8.732;2022-09-09T07:56:13;100958.06;;;16.27;92.52
43745;BME280;29359;53.048;8.732;2022-09-09T07:58:15;100953.38;;;16.32;91.80
43745;BME280;29359;53.048;8.732;2022-09-09T08:00:17;100950.31;;;16.40;91.40
43745;BME280;29359;53.048;8.732;2022-09-09T08:02:20;100953.53;;;16.46;91.25
43745;BME280;29359;53.048;8.732;2022-09-09T08:04:22;100953.41;;;16.49;90.66
43745;BME280;29359;53.048;8.732;2022-09-09T08:06:25;100954.03;;;16.54;90.35
43745;BME280;29359;53.048;8.732;2022-09-09T08:08:28;100954.91;;;16.55;87.59
43745;BME280;29359;53.048;8.732;2022-09-09T08:10:31;100947.28;;;16.64;88.70
43745;BME280;29359;53.048;8.732;2022-09-09T08:12:32;100941.84;;;16.68;89.17
43745;BME280;29359;53.048;8.732;2022-09-09T08:14:36;100952.19;;;16.74;89.29
43745;BME280;29359;53.048;8.732;2022-09-09T08:16:44;100957.03;;;16.83;89.15
43745;BME280;29359;53.048;8.732;2022-09-09T08:18:46;100954.69;;;16.94;88.78
43745;BME280;29359;53.048;8.732;2022-09-09T08:20:48;100953.34;;;17.03;88.21
43745;BME280;29359;53.048;8.732;2022-09-09T08:22:50;100960.94;;;17.10;88.02
43745;BME280;29359;53.048;8.732;2022-09-09T08:24:51;100961.72;;;17.12;87.41
43745;BME280;29359;53.048;8.732;2022-09-09T08:26:53;100959.91;;;17.13;86.72
43745;BME280;29359;53.048;8.732;2022-09-09T08:28:56;100961.53;;;17.15;86.38
43745;BME280;29359;53.048;8.732;2022-09-09T08:33:09;100952.72;;;17.31;85.77
43745;BME280;29359;53.048;8.732;2022-09-09T08:35:10;100967.56;;;17.36;85.32
43745;BME280;29359;53.048;8.732;2022-09-09T08:37:12;100961.03;;;17.42;85.52
43745;BME280;29359;53.048;8.732;2022-09-09T08:39:18;100962.41;;;17.49;84.44
43745;BME280;29359;53.048;8.732;2022-09-09T08:43:51;100966.91;;;17.64;83.99
43745;BME280;29359;53.048;8.732;2022-09-09T08:46:45;100970.19;;;17.69;83.20
43745;BME280;29359;53.048;8.732;2022-09-09T08:48:58;100969.84;;;17.75;82.91
43745;BME280;29359;53.048;8.732;2022-09-09T08:51:03;100970.41;;;17.82;82.29
43745;BME280;29359;53.048;8.732;2022-09-09T08:53:24;100976.44;;;17.85;81.88
43745;BME280;29359;53.048;8.732;2022-09-09T08:57:47;100964.09;;;17.99;80.74
43745;BME280;29359;53.048;8.732;2022-09-09T08:59:50;100969.59;;;18.11;80.81
43745;BME280;29359;53.048;8.732;2022-09-09T09:09:30;100971.31;;;18.58;76.14
43745;BME280;29359;53.048;8.732;2022-09-09T09:12:01;100973.75;;;18.63;76.04
43745;BME280;29359;53.048;8.732;2022-09-09T09:14:21;100971.69;;;18.68;75.06
43745;BME280;29359;53.048;8.732;2022-09-09T09:16:52;100975.34;;;18.81;75.73
43745;BME280;29359;53.048;8.732;2022-09-09T09:18:55;100967.34;;;18.95;76.04
43745;BME280;29359;53.048;8.732;2022-09-09T09:23:58;100967.59;;;19.21;74.57
43745;BME280;29359;53.048;8.732;2022-09-09T09:26:01;100972.47;;;19.28;72.28
43745;BME280;29359;53.048;8.732;2022-09-09T09:28:16;100965.00;;;19.33;72.99
43745;BME280;29359;53.048;8.732;2022-09-09T09:30:26;100975.72;;;19.33;72.27
43745;BME280;29359;53.048;8.732;2022-09-09T09:32:33;100974.94;;;19.31;73.41
43745;BME280;29359;53.048;8.732;2022-09-09T09:34:36;100976.75;;;19.31;73.42
43745;BME280;29359;53.048;8.732;2022-09-09T09:36:45;100980.59;;;19.27;73.80
43745;BME280;29359;53.048;8.732;2022-09-09T09:38:55;100982.03;;;19.18;73.59
43745;BME280;29359;53.048;8.732;2022-09-09T09:41:32;100983.44;;;19.09;73.61
43745;BME280;29359;53.048;8.732;2022-09-09T09:43:36;100975.97;;;19.00;74.14
43745;BME280;29359;53.048;8.732;2022-09-09T09:45:42;100976.25;;;18.96;74.94
43745;BME280;29359;53.048;8.732;2022-09-09T09:48:12;100981.00;;;18.91;74.41
43745;BME280;29359;53.048;8.732;2022-09-09T09:50:19;100981.09;;;18.89;74.68
43745;BME280;29359;53.048;8.732;2022-09-09T09:52:26;100972.13;;;18.90;75.22
43745;BME280;29359;53.048;8.732;2022-09-09T09:54:48;100978.16;;;18.94;74.38
43745;BME280;29359;53.048;8.732;2022-09-09T09:56:49;100980.72;;;18.95;73.77
43745;BME280;29359;53.048;8.732;2022-09-09T09:58:51;100981.41;;;18.99;73.46
43745;BME280;29359;53.048;8.732;2022-09-09T10:00:54;100983.13;;;19.00;73.69
43745;BME280;29359;53.048;8.732;2022-09-09T10:02:56;100978.44;;;19.03;74.26
43745;BME280;29359;53.048;8.732;2022-09-09T10:05:08;100985.19;;;19.10;73.76
43745;BME280;29359;53.048;8.732;2022-09-09T10:07:19;100984.88;;;19.15;73.75
43745;BME280;29359;53.048;8.732;2022-09-09T10:09:26;100976.75;;;19.17;73.27
43745;BME280;29359;53.048;8.732;2022-09-09T10:12:07;100980.78;;;19.24;73.77
43745;BME280;29359;53.048;8.732;2022-09-09T10:16:25;100984.59;;;19.20;72.65
43745;BME280;29359;53.048;8.732;2022-09-09T10:21:10;100982.78;;;19.20;73.12
43745;BME280;29359;53.048;8.732;2022-09-09T10:25:49;100986.03;;;19.11;74.09
43745;BME280;29359;53.048;8.732;2022-09-09T10:28:19;100986.72;;;19.14;74.11
43745;BME280;29359;53.048;8.732;2022-09-09T10:33:08;100984.22;;;19.40;73.63
43745;BME280;29359;53.048;8.732;2022-09-09T10:42:30;100976.22;;;19.68;70.88
43745;BME280;29359;53.048;8.732;2022-09-09T10:49:50;100985.78;;;19.72;71.63
43745;BME280;29359;53.048;8.732;2022-09-09T10:56:16;100978.78;;;19.70;70.80
43745;BME280;29359;53.048;8.732;2022-09-09T10:58:24;100982.34;;;19.70;70.28
43745;BME280;29359;53.048;8.732;2022-09-09T11:00:47;100980.22;;;19.75;70.00
43745;BME280;29359;53.048;8.732;2022-09-09T11:02:58;100978.25;;;19.92;69.51
43745;BME280;29359;53.048;8.732;2022-09-09T11:05:19;100976.97;;;20.12;68.74
43745;BME280;29359;53.048;8.732;2022-09-09T11:07:34;100975.22;;;20.25;67.50
43745;BME280;29359;53.048;8.732;2022-09-09T11:09:45;100977.19;;;20.35;67.46
43745;BME280;29359;53.048;8.732;2022-09-09T11:11:54;100980.63;;;20.37;66.94
43745;BME280;29359;53.048;8.732;2022-09-09T11:14:20;100979.97;;;20.34;67.14
43745;BME280;29359;53.048;8.732;2022-09-09T11:18:39;100984.88;;;20.27;67.40
43745;BME280;29359;53.048;8.732;2022-09-09T11:20:43;100981.63;;;20.22;67.67
43745;BME280;29359;53.048;8.732;2022-09-09T11:22:53;100982.69;;;20.20;68.30
43745;BME280;29359;53.048;8.732;2022-09-09T11:27:19;100967.72;;;20.03;68.65
43745;BME280;29359;53.048;8.732;2022-09-09T11:31:55;100978.84;;;19.97;69.49
43745;BME280;29359;53.048;8.732;2022-09-09T11:38:46;100987.56;;;19.86;68.87
43745;BME280;29359;53.048;8.732;2022-09-09T11:40:58;100986.03;;;19.82;69.81
43745;BME280;29359;53.048;8.732;2022-09-09T11:45:26;100986.34;;;19.77;70.29
43745;BME280;29359;53.048;8.732;2022-09-09T11:47:30;100978.50;;;19.74;71.78
43745;BME280;29359;53.048;8.732;2022-09-09T11:51:40;100986.22;;;19.51;74.00
43745;BME280;29359;53.048;8.732;2022-09-09T11:53:56;100981.81;;;19.35;74.27
43745;BME280;29359;53.048;8.732;2022-09-09T11:56:11;100997.22;;;19.18;75.18
43745;BME280;29359;53.048;8.732;2022-09-09T11:58:16;101003.91;;;19.10;76.50
43745;BME280;29359;53.048;8.732;2022-09-09T12:00:51;101009.28;;;18.95;77.71
43745;BME280;29359;53.048;8.732;2022-09-09T12:02:53;101019.59;;;18.87;78.83
43745;BME280;29359;53.048;8.732;2022-09-09T12:07:00;101021.09;;;18.61;81.97
43745;BME280;29359;53.048;8.732;2022-09-09T12:09:27;101017.88;;;18.40;82.12
43745;BME280;29359;53.048;8.732;2022-09-09T12:11:30;101000.38;;;18.18;83.46
43745;BME280;29359;53.048;8.732;2022-09-09T12:13:31;101005.63;;;17.88;82.74
43745;BME280;29359;53.048;8.732;2022-09-09T12:15:33;101002.47;;;17.65;82.56
43745;BME280;29359;53.048;8.732;2022-09-09T12:17:44;100986.75;;;17.43;80.07
43745;BME280;29359;53.048;8.732;2022-09-09T12:19:47;100985.44;;;17.34;79.28
43745;BME280;29359;53.048;8.732;2022-09-09T12:21:58;100998.44;;;17.07;79.14
43745;BME280;29359;53.048;8.732;2022-09-09T12:24:27;101001.59;;;16.98;76.46
43745;BME280;29359;53.048;8.732;2022-09-09T12:27:03;100989.81;;;17.02;74.24
43745;BME280;29359;53.048;8.732;2022-09-09T12:29:24;100988.63;;;17.08;72.64
43745;BME280;29359;53.048;8.732;2022-09-09T12:34:25;100982.44;;;17.07;75.06
43745;BME280;29359;53.048;8.732;2022-09-09T12:36:32;100977.25;;;17.04;76.40
43745;BME280;29359;53.048;8.732;2022-09-09T12:38:36;100976.31;;;17.05;75.26
43745;BME280;29359;53.048;8.732;2022-09-09T12:40:38;100978.13;;;17.05;76.97
43745;BME280;29359;53.048;8.732;2022-09-09T12:42:40;100975.69;;;17.00;79.88
43745;BME280;29359;53.048;8.732;2022-09-09T12:45:00;100981.03;;;17.00;80.30
43745;BME280;29359;53.048;8.732;2022-09-09T12:47:03;100981.75;;;17.04;78.90
43745;BME280;29359;53.048;8.732;2022-09-09T12:49:05;100971.53;;;17.12;77.10